sensor_id;sensor_type;location;lat;lon;timestamp;P1;durP1;ratioP1;P2;durP2;ratioP2
37895;SDS011;23733;53.254;10.430;2022-07-30T00:00:07;6.93;;;2.27;;
37895;SDS011;23733;53.254;10.430;2022-07-30T00:02:34;7.43;;;1.90;;
37895;SDS011;23733;53.254;10.430;2022-07-30T00:05:00;3.53;;;1.87;;
37895;SDS011;23733;53.254;10.430;2022-07-30T00:07:27;5.13;;;1.70;;
37895;SDS011;23733;53.254;10.430;2022-07-30T00:09:53;3.50;;;1.80;;
37895;SDS011;23733;53.254;10.430;2022-07-30T00:12:19;4.43;;;1.80;;
37895;SDS011;23733;53.254;10.430;2022-07-30T00:14:45;4.67;;;1.80;;
37895;SDS011;23733;53.254;10.430;2022-07-30T00:17:11;4.53;;;1.70;;
37895;SDS011;23733;53.254;10.430;2022-07-30T00:19:37;5.33;;;1.73;;
37895;SDS011;23733;53.254;10.430;2022-07-30T00:22:03;2.83;;;2.00;;
37895;SDS011;23733;53.254;10.430;2022-07-30T00:24:29;4.70;;;1.80;;
37895;SDS011;23733;53.254;10.430;2022-07-30T00:26:55;3.43;;;1.70;;
37895;SDS011;23733;53.254;10.430;2022-07-30T00:29:21;7.17;;;1.80;;
37895;SDS011;23733;53.254;10.430;2022-07-30T00:31:47;4.57;;;1.90;;
37895;SDS011;23733;53.254;10.430;2022-07-30T00:34:13;4.07;;;1.90;;
37895;SDS011;23733;53.254;10.430;2022-07-30T00:36:39;3.27;;;1.77;;
37895;SDS011;23733;53.254;10.430;2022-07-30T00:39:05;6.33;;;2.00;;
37895;SDS011;23733;53.254;10.430;2022-07-30T00:41:31;2.63;;;1.40;;
37895;SDS011;23733;53.254;10.430;2022-07-30T00:43:57;3.90;;;1.80;;
37895;SDS011;23733;53.254;10.430;2022-07-30T00:46:23;4.70;;;2.00;;
37895;SDS011;23733;53.254;10.430;2022-07-30T00:48:49;3.23;;;1.80;;
37895;SDS011;23733;53.254;10.430;2022-07-30T00:51:15;4.83;;;1.70;;
37895;SDS011;23733;53.254;10.430;2022-07-30T00:53:41;3.17;;;1.90;;
37895;SDS011;23733;53.254;10.430;2022-07-30T00:56:07;6.63;;;1.90;;
37895;SDS011;23733;53.254;10.430;2022-07-30T00:58:33;5.23;;;1.90;;
37895;SDS011;23733;53.254;10.430;2022-07-30T01:00:59;7.13;;;2.10;;
37895;SDS011;23733;53.254;10.430;2022-07-30T01:03:26;7.20;;;2.10;;
37895;SDS011;23733;53.254;10.430;2022-07-30T01:05:51;6.07;;;1.97;;
37895;SDS011;23733;53.254;10.430;2022-07-30T01:08:17;3.63;;;1.70;;
37895;SDS011;23733;53.254;10.430;2022-07-30T01:10:43;3.53;;;1.93;;
37895;SDS011;23733;53.254;10.430;2022-07-30T01:13:11;5.23;;;2.00;;
37895;SDS011;23733;53.254;10.430;2022-07-30T01:15:37;3.53;;;1.73;;
37895;SDS011;23733;53.254;10.430;2022-07-30T01:18:04;4.93;;;2.10;;
37895;SDS011;23733;53.254;10.430;2022-07-30T01:20:34;5.03;;;1.93;;
37895;SDS011;23733;53.254;10.430;2022-07-30T01:23:13;5.20;;;1.87;;
37895;SDS011;23733;53.254;10.430;2022-07-30T01:28:15;5.03;;;2.10;;
37895;SDS011;23733;53.254;10.430;2022-07-30T01:30:45;5.43;;;1.80;;
37895;SDS011;23733;53.254;10.430;2022-07-30T01:33:16;4.60;;;1.87;;
37895;SDS011;23733;53.254;10.430;2022-07-30T01:35:44;3.33;;;2.03;;
37895;SDS011;23733;53.254;10.430;2022-07-30T01:38:11;6.47;;;1.90;;
37895;SDS011;23733;53.254;10.430;2022-07-30T01:40:38;3.60;;;1.77;;
37895;SDS011;23733;53.254;10.430;2022-07-30T01:43:06;3.60;;;2.10;;
37895;SDS011;23733;53.254;10.430;2022-07-30T01:45:33;5.43;;;2.20;;
37895;SDS011;23733;53.254;10.430;2022-07-30T01:48:02;4.13;;;2.20;;
37895;SDS011;23733;53.254;10.430;2022-07-30T01:50:29;4.77;;;1.93;;
37895;SDS011;23733;53.254;10.430;2022-07-30T01:52:56;4.83;;;1.93;;
37895;SDS011;23733;53.254;10.430;2022-07-30T01:55:44;2.93;;;1.77;;
37895;SDS011;23733;53.254;10.430;2022-07-30T01:58:09;3.60;;;1.93;;
37895;SDS011;23733;53.254;10.430;2022-07-30T02:00:39;6.38;;;2.20;;
37895;SDS011;23733;53.254;10.430;2022-07-30T02:03:08;7.13;;;1.97;;
37895;SDS011;23733;53.254;10.430;2022-07-30T02:05:36;4.67;;;2.17;;
37895;SDS011;23733;53.254;10.430;2022-07-30T02:08:16;6.03;;;1.70;;
37895;SDS011;23733;53.254;10.430;2022-07-30T02:10:50;6.73;;;2.20;;
37895;SDS011;23733;53.254;10.430;2022-07-30T02:13:22;5.90;;;1.97;;
37895;SDS011;23733;53.254;10.430;2022-07-30T02:16:02;5.00;;;1.83;;
37895;SDS011;23733;53.254;10.430;2022-07-30T02:18:49;3.20;;;2.03;;
37895;SDS011;23733;53.254;10.430;2022-07-30T02:21:22;4.30;;;1.80;;
37895;SDS011;23733;53.254;10.430;2022-07-30T02:23:48;5.90;;;1.87;;
37895;SDS011;23733;53.254;10.430;2022-07-30T02:26:17;8.77;;;2.10;;
37895;SDS011;23733;53.254;10.430;2022-07-30T02:28:47;6.67;;;1.90;;
37895;SDS011;23733;53.254;10.430;2022-07-30T02:31:16;3.90;;;2.00;;
37895;SDS011;23733;53.254;10.430;2022-07-30T02:33:47;4.77;;;1.83;;
37895;SDS011;23733;53.254;10.430;2022-07-30T02:36:15;9.67;;;1.87;;
37895;SDS011;23733;53.254;10.430;2022-07-30T02:38:43;4.23;;;2.03;;
37895;SDS011;23733;53.254;10.430;2022-07-30T02:41:09;5.20;;;2.13;;
37895;SDS011;23733;53.254;10.430;2022-07-30T02:43:38;2.97;;;1.93;;
37895;SDS011;23733;53.254;10.430;2022-07-30T02:46:06;5.30;;;2.17;;
37895;SDS011;23733;53.254;10.430;2022-07-30T02:48:33;5.47;;;2.17;;
37895;SDS011;23733;53.254;10.430;2022-07-30T02:51:03;3.83;;;2.00;;
37895;SDS011;23733;53.254;10.430;2022-07-30T02:53:31;4.63;;;1.93;;
37895;SDS011;23733;53.254;10.430;2022-07-30T02:55:59;4.33;;;2.00;;
37895;SDS011;23733;53.254;10.430;2022-07-30T02:58:27;3.40;;;1.60;;
37895;SDS011;23733;53.254;10.430;2022-07-30T03:00:55;2.97;;;1.90;;
37895;SDS011;23733;53.254;10.430;2022-07-30T03:03:22;3.10;;;2.00;;
37895;SDS011;23733;53.254;10.430;2022-07-30T03:05:53;4.63;;;2.03;;
37895;SDS011;23733;53.254;10.430;2022-07-30T03:08:20;3.03;;;2.00;;
37895;SDS011;23733;53.254;10.430;2022-07-30T03:10:47;5.63;;;1.90;;
37895;SDS011;23733;53.254;10.430;2022-07-30T03:13:13;6.77;;;2.30;;
37895;SDS011;23733;53.254;10.430;2022-07-30T03:15:42;5.90;;;2.37;;
37895;SDS011;23733;53.254;10.430;2022-07-30T03:18:13;4.60;;;2.00;;
37895;SDS011;23733;53.254;10.430;2022-07-30T03:20:43;5.90;;;2.03;;
37895;SDS011;23733;53.254;10.430;2022-07-30T03:23:11;5.20;;;2.43;;
37895;SDS011;23733;53.254;10.430;2022-07-30T03:25:44;9.83;;;2.50;;
37895;SDS011;23733;53.254;10.430;2022-07-30T03:28:15;4.60;;;2.20;;
37895;SDS011;23733;53.254;10.430;2022-07-30T03:30:42;5.27;;;2.27;;
37895;SDS011;23733;53.254;10.430;2022-07-30T03:33:09;6.13;;;2.27;;
37895;SDS011;23733;53.254;10.430;2022-07-30T03:35:36;3.87;;;2.40;;
37895;SDS011;23733;53.254;10.430;2022-07-30T03:38:04;7.13;;;2.50;;
37895;SDS011;23733;53.254;10.430;2022-07-30T03:40:30;3.90;;;2.23;;
37895;SDS011;23733;53.254;10.430;2022-07-30T03:42:57;3.70;;;2.20;;
37895;SDS011;23733;53.254;10.430;2022-07-30T03:45:23;7.57;;;2.10;;
37895;SDS011;23733;53.254;10.430;2022-07-30T03:47:50;3.90;;;2.00;;
37895;SDS011;23733;53.254;10.430;2022-07-30T03:50:16;6.47;;;2.00;;
37895;SDS011;23733;53.254;10.430;2022-07-30T03:52:42;4.40;;;2.00;;
37895;SDS011;23733;53.254;10.430;2022-07-30T03:55:10;5.87;;;2.33;;
37895;SDS011;23733;53.254;10.430;2022-07-30T03:57:36;5.10;;;2.20;;
37895;SDS011;23733;53.254;10.430;2022-07-30T04:00:04;7.20;;;2.53;;
37895;SDS011;23733;53.254;10.430;2022-07-30T04:02:39;3.87;;;2.10;;
37895;SDS011;23733;53.254;10.430;2022-07-30T04:05:06;10.03;;;2.50;;
37895;SDS011;23733;53.254;10.430;2022-07-30T04:07:32;4.43;;;2.17;;
37895;SDS011;23733;53.254;10.430;2022-07-30T04:09:58;5.30;;;2.27;;
37895;SDS011;23733;53.254;10.430;2022-07-30T04:12:24;6.37;;;2.50;;
37895;SDS011;23733;53.254;10.430;2022-07-30T04:14:50;2.87;;;2.00;;
37895;SDS011;23733;53.254;10.430;2022-07-30T04:17:21;3.93;;;2.13;;
37895;SDS011;23733;53.254;10.430;2022-07-30T04:19:52;3.63;;;2.27;;
37895;SDS011;23733;53.254;10.430;2022-07-30T04:22:29;3.03;;;2.00;;
37895;SDS011;23733;53.254;10.430;2022-07-30T04:24:59;6.47;;;2.37;;
37895;SDS011;23733;53.254;10.430;2022-07-30T04:27:26;5.30;;;2.77;;
37895;SDS011;23733;53.254;10.430;2022-07-30T04:29:53;4.17;;;2.30;;
37895;SDS011;23733;53.254;10.430;2022-07-30T04:32:20;6.00;;;2.10;;
37895;SDS011;23733;53.254;10.430;2022-07-30T04:34:46;5.23;;;2.20;;
37895;SDS011;23733;53.254;10.430;2022-07-30T04:37:15;4.70;;;2.00;;
37895;SDS011;23733;53.254;10.430;2022-07-30T04:39:42;2.80;;;2.00;;
37895;SDS011;23733;53.254;10.430;2022-07-30T04:42:08;7.77;;;2.20;;
37895;SDS011;23733;53.254;10.430;2022-07-30T04:44:35;6.70;;;2.07;;
37895;SDS011;23733;53.254;10.430;2022-07-30T04:47:01;5.33;;;2.27;;
37895;SDS011;23733;53.254;10.430;2022-07-30T04:49:27;4.90;;;2.10;;
37895;SDS011;23733;53.254;10.430;2022-07-30T04:51:54;5.10;;;2.20;;
37895;SDS011;23733;53.254;10.430;2022-07-30T04:54:21;4.50;;;2.20;;
37895;SDS011;23733;53.254;10.430;2022-07-30T04:56:49;4.63;;;2.10;;
37895;SDS011;23733;53.254;10.430;2022-07-30T04:59:16;6.63;;;2.20;;
37895;SDS011;23733;53.254;10.430;2022-07-30T05:01:44;4.20;;;2.10;;
37895;SDS011;23733;53.254;10.430;2022-07-30T05:04:14;3.70;;;2.30;;
37895;SDS011;23733;53.254;10.430;2022-07-30T05:06:41;5.20;;;2.23;;
37895;SDS011;23733;53.254;10.430;2022-07-30T05:09:09;7.43;;;2.47;;
37895;SDS011;23733;53.254;10.430;2022-07-30T05:11:36;7.97;;;2.20;;
37895;SDS011;23733;53.254;10.430;2022-07-30T05:14:02;6.63;;;2.23;;
37895;SDS011;23733;53.254;10.430;2022-07-30T05:16:28;7.07;;;2.10;;
37895;SDS011;23733;53.254;10.430;2022-07-30T05:18:54;3.70;;;2.53;;
37895;SDS011;23733;53.254;10.430;2022-07-30T05:21:20;5.30;;;2.30;;
37895;SDS011;23733;53.254;10.430;2022-07-30T05:23:46;5.20;;;2.40;;
37895;SDS011;23733;53.254;10.430;2022-07-30T05:26:12;4.90;;;2.33;;
37895;SDS011;23733;53.254;10.430;2022-07-30T05:28:38;2.87;;;1.93;;
37895;SDS011;23733;53.254;10.430;2022-07-30T05:31:04;5.47;;;2.00;;
37895;SDS011;23733;53.254;10.430;2022-07-30T05:33:30;3.33;;;2.17;;
37895;SDS011;23733;53.254;10.430;2022-07-30T05:35:56;4.30;;;2.03;;
37895;SDS011;23733;53.254;10.430;2022-07-30T05:38:24;4.33;;;2.20;;
37895;SDS011;23733;53.254;10.430;2022-07-30T05:40:50;4.40;;;2.30;;
37895;SDS011;23733;53.254;10.430;2022-07-30T05:43:16;6.73;;;2.27;;
37895;SDS011;23733;53.254;10.430;2022-07-30T05:45:42;3.73;;;2.13;;
37895;SDS011;23733;53.254;10.430;2022-07-30T05:48:08;3.87;;;2.17;;
37895;SDS011;23733;53.254;10.430;2022-07-30T05:50:34;4.87;;;2.40;;
37895;SDS011;23733;53.254;10.430;2022-07-30T05:53:00;3.07;;;2.17;;
37895;SDS011;23733;53.254;10.430;2022-07-30T05:55:26;4.00;;;2.23;;
37895;SDS011;23733;53.254;10.430;2022-07-30T05:57:52;7.00;;;2.60;;
37895;SDS011;23733;53.254;10.430;2022-07-30T06:00:18;6.97;;;2.37;;
37895;SDS011;23733;53.254;10.430;2022-07-30T06:02:44;6.80;;;2.17;;
37895;SDS011;23733;53.254;10.430;2022-07-30T06:05:10;5.03;;;2.33;;
37895;SDS011;23733;53.254;10.430;2022-07-30T06:07:36;6.13;;;2.33;;
37895;SDS011;23733;53.254;10.430;2022-07-30T06:10:03;5.40;;;2.37;;
37895;SDS011;23733;53.254;10.430;2022-07-30T06:12:29;5.27;;;2.00;;
37895;SDS011;23733;53.254;10.430;2022-07-30T06:14:56;2.73;;;2.30;;
37895;SDS011;23733;53.254;10.430;2022-07-30T06:17:22;7.67;;;2.60;;
37895;SDS011;23733;53.254;10.430;2022-07-30T06:19:48;8.77;;;2.47;;
37895;SDS011;23733;53.254;10.430;2022-07-30T06:22:15;7.60;;;2.60;;
37895;SDS011;23733;53.254;10.430;2022-07-30T06:24:41;6.60;;;2.30;;
37895;SDS011;23733;53.254;10.430;2022-07-30T06:27:07;4.87;;;2.80;;
37895;SDS011;23733;53.254;10.430;2022-07-30T06:29:33;5.07;;;2.20;;
37895;SDS011;23733;53.254;10.430;2022-07-30T06:31:59;4.83;;;2.00;;
37895;SDS011;23733;53.254;10.430;2022-07-30T06:34:25;4.63;;;2.40;;
37895;SDS011;23733;53.254;10.430;2022-07-30T06:36:51;2.37;;;1.90;;
37895;SDS011;23733;53.254;10.430;2022-07-30T06:39:18;4.87;;;2.63;;
37895;SDS011;23733;53.254;10.430;2022-07-30T06:41:44;3.67;;;2.20;;
37895;SDS011;23733;53.254;10.430;2022-07-30T06:44:10;4.40;;;2.00;;
37895;SDS011;23733;53.254;10.430;2022-07-30T06:46:36;6.13;;;2.30;;
37895;SDS011;23733;53.254;10.430;2022-07-30T06:49:02;5.87;;;2.10;;
37895;SDS011;23733;53.254;10.430;2022-07-30T06:51:28;4.23;;;2.00;;
37895;SDS011;23733;53.254;10.430;2022-07-30T06:53:54;7.30;;;2.50;;
37895;SDS011;23733;53.254;10.430;2022-07-30T06:56:20;4.50;;;2.00;;
37895;SDS011;23733;53.254;10.430;2022-07-30T06:58:46;3.03;;;2.00;;
37895;SDS011;23733;53.254;10.430;2022-07-30T07:01:12;6.27;;;2.60;;
37895;SDS011;23733;53.254;10.430;2022-07-30T07:03:38;6.10;;;2.47;;
37895;SDS011;23733;53.254;10.430;2022-07-30T07:06:04;4.70;;;2.30;;
37895;SDS011;23733;53.254;10.430;2022-07-30T07:08:30;6.03;;;2.60;;
37895;SDS011;23733;53.254;10.430;2022-07-30T07:10:56;2.67;;;2.00;;
37895;SDS011;23733;53.254;10.430;2022-07-30T07:13:22;6.03;;;2.30;;
37895;SDS011;23733;53.254;10.430;2022-07-30T07:15:48;3.93;;;2.07;;
37895;SDS011;23733;53.254;10.430;2022-07-30T07:18:14;4.03;;;2.60;;
37895;SDS011;23733;53.254;10.430;2022-07-30T07:20:40;4.70;;;2.03;;
37895;SDS011;23733;53.254;10.430;2022-07-30T07:23:07;4.73;;;2.13;;
37895;SDS011;23733;53.254;10.430;2022-07-30T07:25:33;5.13;;;2.47;;
37895;SDS011;23733;53.254;10.430;2022-07-30T07:27:59;3.00;;;2.10;;
37895;SDS011;23733;53.254;10.430;2022-07-30T07:30:25;3.53;;;1.97;;
37895;SDS011;23733;53.254;10.430;2022-07-30T07:32:52;6.70;;;2.23;;
37895;SDS011;23733;53.254;10.430;2022-07-30T07:35:18;4.50;;;2.30;;
37895;SDS011;23733;53.254;10.430;2022-07-30T07:37:44;5.43;;;2.23;;
37895;SDS011;23733;53.254;10.430;2022-07-30T07:40:10;4.17;;;2.03;;
37895;SDS011;23733;53.254;10.430;2022-07-30T07:42:36;4.67;;;2.13;;
37895;SDS011;23733;53.254;10.430;2022-07-30T07:45:02;3.87;;;2.10;;
37895;SDS011;23733;53.254;10.430;2022-07-30T07:47:28;7.33;;;2.53;;
37895;SDS011;23733;53.254;10.430;2022-07-30T07:49:55;9.83;;;2.50;;
37895;SDS011;23733;53.254;10.430;2022-07-30T07:52:21;5.43;;;2.40;;
37895;SDS011;23733;53.254;10.430;2022-07-30T07:54:47;8.07;;;2.37;;
37895;SDS011;23733;53.254;10.430;2022-07-30T07:57:13;6.80;;;2.70;;
37895;SDS011;23733;53.254;10.430;2022-07-30T07:59:39;4.20;;;2.60;;
37895;SDS011;23733;53.254;10.430;2022-07-30T08:02:05;4.80;;;2.50;;
37895;SDS011;23733;53.254;10.430;2022-07-30T08:04:31;8.37;;;2.40;;
37895;SDS011;23733;53.254;10.430;2022-07-30T08:06:57;6.47;;;2.80;;
37895;SDS011;23733;53.254;10.430;2022-07-30T08:09:23;5.73;;;2.87;;
37895;SDS011;23733;53.254;10.430;2022-07-30T08:11:49;6.50;;;2.77;;
37895;SDS011;23733;53.254;10.430;2022-07-30T08:14:15;5.27;;;2.50;;
37895;SDS011;23733;53.254;10.430;2022-07-30T08:16:41;6.67;;;2.87;;
37895;SDS011;23733;53.254;10.430;2022-07-30T08:19:07;5.43;;;2.37;;
37895;SDS011;23733;53.254;10.430;2022-07-30T08:21:34;6.60;;;2.40;;
37895;SDS011;23733;53.254;10.430;2022-07-30T08:24:00;9.57;;;2.50;;
37895;SDS011;23733;53.254;10.430;2022-07-30T08:26:26;6.60;;;2.97;;
37895;SDS011;23733;53.254;10.430;2022-07-30T08:28:52;5.40;;;2.50;;
37895;SDS011;23733;53.254;10.430;2022-07-30T08:31:18;4.63;;;2.50;;
37895;SDS011;23733;53.254;10.430;2022-07-30T08:33:44;7.57;;;2.43;;
37895;SDS011;23733;53.254;10.430;2022-07-30T08:36:10;13.13;;;2.50;;
37895;SDS011;23733;53.254;10.430;2022-07-30T08:38:36;8.63;;;2.73;;
37895;SDS011;23733;53.254;10.430;2022-07-30T08:41:03;6.20;;;2.50;;
37895;SDS011;23733;53.254;10.430;2022-07-30T08:43:29;6.70;;;2.80;;
37895;SDS011;23733;53.254;10.430;2022-07-30T08:45:55;5.73;;;2.80;;
37895;SDS011;23733;53.254;10.430;2022-07-30T08:48:24;5.93;;;2.73;;
37895;SDS011;23733;53.254;10.430;2022-07-30T08:50:52;4.77;;;2.80;;
37895;SDS011;23733;53.254;10.430;2022-07-30T08:53:18;4.23;;;2.50;;
37895;SDS011;23733;53.254;10.430;2022-07-30T08:55:45;6.80;;;2.60;;
37895;SDS011;23733;53.254;10.430;2022-07-30T08:58:19;11.27;;;3.00;;
37895;SDS011;23733;53.254;10.430;2022-07-30T09:00:55;7.67;;;2.47;;
37895;SDS011;23733;53.254;10.430;2022-07-30T09:03:22;5.03;;;2.57;;
37895;SDS011;23733;53.254;10.430;2022-07-30T09:05:48;5.27;;;2.60;;
37895;SDS011;23733;53.254;10.430;2022-07-30T09:08:14;4.23;;;2.20;;
37895;SDS011;23733;53.254;10.430;2022-07-30T09:10:41;6.30;;;2.53;;
37895;SDS011;23733;53.254;10.430;2022-07-30T09:13:21;6.77;;;2.50;;
37895;SDS011;23733;53.254;10.430;2022-07-30T09:15:52;6.50;;;2.30;;
37895;SDS011;23733;53.254;10.430;2022-07-30T09:21:16;5.47;;;2.37;;
37895;SDS011;23733;53.254;10.430;2022-07-30T09:26:24;6.63;;;2.37;;
37895;SDS011;23733;53.254;10.430;2022-07-30T09:28:50;6.63;;;2.63;;
37895;SDS011;23733;53.254;10.430;2022-07-30T09:31:17;4.97;;;2.37;;
37895;SDS011;23733;53.254;10.430;2022-07-30T09:33:44;8.80;;;2.43;;
37895;SDS011;23733;53.254;10.430;2022-07-30T09:36:12;3.90;;;2.20;;
37895;SDS011;23733;53.254;10.430;2022-07-30T09:38:44;3.63;;;2.20;;
37895;SDS011;23733;53.254;10.430;2022-07-30T09:41:17;6.10;;;2.50;;
37895;SDS011;23733;53.254;10.430;2022-07-30T09:43:47;9.10;;;2.77;;
37895;SDS011;23733;53.254;10.430;2022-07-30T09:46:15;7.03;;;2.17;;
37895;SDS011;23733;53.254;10.430;2022-07-30T09:48:42;5.43;;;2.20;;
37895;SDS011;23733;53.254;10.430;2022-07-30T09:51:11;2.67;;;2.00;;
37895;SDS011;23733;53.254;10.430;2022-07-30T09:53:54;6.23;;;2.20;;
37895;SDS011;23733;53.254;10.430;2022-07-30T09:56:25;3.90;;;2.30;;
37895;SDS011;23733;53.254;10.430;2022-07-30T09:58:52;7.30;;;2.70;;
37895;SDS011;23733;53.254;10.430;2022-07-30T10:01:18;4.97;;;2.37;;
37895;SDS011;23733;53.254;10.430;2022-07-30T10:03:44;5.80;;;2.30;;
37895;SDS011;23733;53.254;10.430;2022-07-30T10:06:10;3.63;;;2.23;;
37895;SDS011;23733;53.254;10.430;2022-07-30T10:08:49;6.10;;;2.60;;
37895;SDS011;23733;53.254;10.430;2022-07-30T10:11:20;5.57;;;2.20;;
37895;SDS011;23733;53.254;10.430;2022-07-30T10:13:48;6.30;;;2.50;;
37895;SDS011;23733;53.254;10.430;2022-07-30T10:16:15;7.83;;;2.57;;
37895;SDS011;23733;53.254;10.430;2022-07-30T10:18:42;5.23;;;2.60;;
37895;SDS011;23733;53.254;10.430;2022-07-30T10:21:08;3.83;;;2.70;;
37895;SDS011;23733;53.254;10.430;2022-07-30T10:23:35;6.97;;;2.97;;
37895;SDS011;23733;53.254;10.430;2022-07-30T10:26:02;6.47;;;2.80;;
37895;SDS011;23733;53.254;10.430;2022-07-30T10:28:29;9.23;;;3.10;;
37895;SDS011;23733;53.254;10.430;2022-07-30T10:30:56;10.17;;;2.90;;
37895;SDS011;23733;53.254;10.430;2022-07-30T10:33:27;4.33;;;2.67;;
37895;SDS011;23733;53.254;10.430;2022-07-30T10:35:54;8.30;;;2.67;;
37895;SDS011;23733;53.254;10.430;2022-07-30T10:38:22;4.20;;;2.43;;
37895;SDS011;23733;53.254;10.430;2022-07-30T10:40:56;10.70;;;2.40;;
37895;SDS011;23733;53.254;10.430;2022-07-30T10:49:19;4.10;;;2.10;;
37895;SDS011;23733;53.254;10.430;2022-07-30T10:51:46;6.90;;;2.67;;
37895;SDS011;23733;53.254;10.430;2022-07-30T10:57:02;7.77;;;2.27;;
37895;SDS011;23733;53.254;10.430;2022-07-30T10:59:28;6.30;;;2.90;;
37895;SDS011;23733;53.254;10.430;2022-07-30T11:04:23;8.27;;;2.83;;
37895;SDS011;23733;53.254;10.430;2022-07-30T11:06:50;6.73;;;2.37;;
37895;SDS011;23733;53.254;10.430;2022-07-30T11:09:40;6.10;;;2.40;;
37895;SDS011;23733;53.254;10.430;2022-07-30T11:12:07;4.47;;;2.50;;
37895;SDS011;23733;53.254;10.430;2022-07-30T11:17:13;7.73;;;2.37;;
37895;SDS011;23733;53.254;10.430;2022-07-30T11:22:32;3.53;;;2.47;;
37895;SDS011;23733;53.254;10.430;2022-07-30T11:27:52;6.07;;;2.50;;
37895;SDS011;23733;53.254;10.430;2022-07-30T11:32:48;5.93;;;2.33;;
37895;SDS011;23733;53.254;10.430;2022-07-30T11:35:17;5.77;;;2.60;;
37895;SDS011;23733;53.254;10.430;2022-07-30T11:38:04;10.03;;;2.73;;
37895;SDS011;23733;53.254;10.430;2022-07-30T11:40:36;6.07;;;2.60;;
37895;SDS011;23733;53.254;10.430;2022-07-30T11:45:51;6.80;;;2.30;;
37895;SDS011;23733;53.254;10.430;2022-07-30T11:48:29;5.70;;;2.50;;
37895;SDS011;23733;53.254;10.430;2022-07-30T11:50:56;4.23;;;2.17;;
37895;SDS011;23733;53.254;10.430;2022-07-30T11:53:22;5.40;;;2.53;;
37895;SDS011;23733;53.254;10.430;2022-07-30T11:55:50;4.40;;;2.33;;
37895;SDS011;23733;53.254;10.430;2022-07-30T11:58:27;6.83;;;2.50;;
37895;SDS011;23733;53.254;10.430;2022-07-30T12:00:57;5.53;;;2.80;;
37895;SDS011;23733;53.254;10.430;2022-07-30T12:03:28;8.40;;;2.70;;
37895;SDS011;23733;53.254;10.430;2022-07-30T12:06:04;8.97;;;2.63;;
37895;SDS011;23733;53.254;10.430;2022-07-30T12:08:38;6.03;;;2.50;;
37895;SDS011;23733;53.254;10.430;2022-07-30T12:11:05;10.37;;;2.87;;
37895;SDS011;23733;53.254;10.430;2022-07-30T12:13:31;5.73;;;2.40;;
37895;SDS011;23733;53.254;10.430;2022-07-30T12:15:57;10.02;;;2.55;;
37895;SDS011;23733;53.254;10.430;2022-07-30T12:18:24;4.67;;;2.20;;
37895;SDS011;23733;53.254;10.430;2022-07-30T12:20:59;4.37;;;2.73;;
37895;SDS011;23733;53.254;10.430;2022-07-30T12:23:27;6.97;;;2.53;;
37895;SDS011;23733;53.254;10.430;2022-07-30T12:25:54;4.53;;;2.40;;
37895;SDS011;23733;53.254;10.430;2022-07-30T12:28:21;6.40;;;2.53;;
37895;SDS011;23733;53.254;10.430;2022-07-30T12:30:52;5.53;;;2.50;;
37895;SDS011;23733;53.254;10.430;2022-07-30T12:33:19;6.07;;;2.27;;
37895;SDS011;23733;53.254;10.430;2022-07-30T12:35:46;5.78;;;2.30;;
37895;SDS011;23733;53.254;10.430;2022-07-30T12:38:14;6.68;;;2.42;;
37895;SDS011;23733;53.254;10.430;2022-07-30T12:40:51;5.20;;;2.38;;
37895;SDS011;23733;53.254;10.430;2022-07-30T12:43:41;6.45;;;2.53;;
37895;SDS011;23733;53.254;10.430;2022-07-30T12:46:08;5.35;;;2.30;;
37895;SDS011;23733;53.254;10.430;2022-07-30T12:48:34;4.80;;;2.40;;
37895;SDS011;23733;53.254;10.430;2022-07-30T12:51:06;4.93;;;2.47;;
37895;SDS011;23733;53.254;10.430;2022-07-30T12:53:33;6.13;;;2.40;;
37895;SDS011;23733;53.254;10.430;2022-07-30T12:56:12;4.38;;;2.30;;
37895;SDS011;23733;53.254;10.430;2022-07-30T12:58:43;2.65;;;2.20;;
37895;SDS011;23733;53.254;10.430;2022-07-30T13:01:09;3.03;;;2.00;;
37895;SDS011;23733;53.254;10.430;2022-07-30T13:03:36;4.07;;;2.20;;
37895;SDS011;23733;53.254;10.430;2022-07-30T13:06:12;6.45;;;2.53;;
37895;SDS011;23733;53.254;10.430;2022-07-30T13:08:59;5.32;;;2.60;;
37895;SDS011;23733;53.254;10.430;2022-07-30T13:11:26;4.65;;;2.78;;
37895;SDS011;23733;53.254;10.430;2022-07-30T13:14:06;7.20;;;2.17;;
37895;SDS011;23733;53.254;10.430;2022-07-30T13:16:34;5.38;;;2.40;;
37895;SDS011;23733;53.254;10.430;2022-07-30T13:19:03;4.68;;;2.17;;
37895;SDS011;23733;53.254;10.430;2022-07-30T13:21:31;4.68;;;2.20;;
37895;SDS011;23733;53.254;10.430;2022-07-30T13:23:58;5.65;;;2.35;;
37895;SDS011;23733;53.254;10.430;2022-07-30T13:26:24;8.15;;;2.70;;
37895;SDS011;23733;53.254;10.430;2022-07-30T13:28:51;5.18;;;2.30;;
37895;SDS011;23733;53.254;10.430;2022-07-30T13:31:17;7.22;;;2.47;;
37895;SDS011;23733;53.254;10.430;2022-07-30T13:33:43;5.05;;;2.45;;
37895;SDS011;23733;53.254;10.430;2022-07-30T13:36:09;3.92;;;2.38;;
37895;SDS011;23733;53.254;10.430;2022-07-30T13:38:35;2.55;;;2.10;;
37895;SDS011;23733;53.254;10.430;2022-07-30T13:41:01;5.50;;;2.00;;
37895;SDS011;23733;53.254;10.430;2022-07-30T13:43:28;5.65;;;2.67;;
37895;SDS011;23733;53.254;10.430;2022-07-30T13:45:55;3.38;;;2.10;;
37895;SDS011;23733;53.254;10.430;2022-07-30T13:48:21;3.67;;;2.10;;
37895;SDS011;23733;53.254;10.430;2022-07-30T13:50:47;3.80;;;2.45;;
37895;SDS011;23733;53.254;10.430;2022-07-30T13:53:13;3.47;;;2.28;;
37895;SDS011;23733;53.254;10.430;2022-07-30T13:55:39;3.45;;;2.15;;
37895;SDS011;23733;53.254;10.430;2022-07-30T13:58:07;4.85;;;2.38;;
37895;SDS011;23733;53.254;10.430;2022-07-30T14:00:34;5.20;;;2.50;;
37895;SDS011;23733;53.254;10.430;2022-07-30T14:03:02;4.50;;;2.40;;
37895;SDS011;23733;53.254;10.430;2022-07-30T14:05:30;6.53;;;2.22;;
37895;SDS011;23733;53.254;10.430;2022-07-30T14:07:57;8.20;;;2.42;;
37895;SDS011;23733;53.254;10.430;2022-07-30T14:10:23;5.00;;;2.50;;
37895;SDS011;23733;53.254;10.430;2022-07-30T14:12:50;6.65;;;2.88;;
37895;SDS011;23733;53.254;10.430;2022-07-30T14:15:23;14.85;;;2.67;;
37895;SDS011;23733;53.254;10.430;2022-07-30T14:17:50;3.90;;;2.50;;
37895;SDS011;23733;53.254;10.430;2022-07-30T14:20:16;3.35;;;2.30;;
37895;SDS011;23733;53.254;10.430;2022-07-30T14:22:43;5.28;;;2.45;;
37895;SDS011;23733;53.254;10.430;2022-07-30T14:25:09;5.07;;;2.08;;
37895;SDS011;23733;53.254;10.430;2022-07-30T14:27:35;4.63;;;2.45;;
37895;SDS011;23733;53.254;10.430;2022-07-30T14:30:03;4.40;;;2.42;;
37895;SDS011;23733;53.254;10.430;2022-07-30T14:32:30;6.63;;;2.25;;
37895;SDS011;23733;53.254;10.430;2022-07-30T14:34:56;3.20;;;2.30;;
37895;SDS011;23733;53.254;10.430;2022-07-30T14:37:22;11.88;;;2.80;;
37895;SDS011;23733;53.254;10.430;2022-07-30T14:39:48;5.38;;;2.35;;
37895;SDS011;23733;53.254;10.430;2022-07-30T14:42:14;3.72;;;2.28;;
37895;SDS011;23733;53.254;10.430;2022-07-30T14:44:41;4.93;;;2.15;;
37895;SDS011;23733;53.254;10.430;2022-07-30T14:47:07;7.18;;;2.40;;
37895;SDS011;23733;53.254;10.430;2022-07-30T14:49:34;12.05;;;2.33;;
37895;SDS011;23733;53.254;10.430;2022-07-30T14:52:00;4.82;;;2.40;;
37895;SDS011;23733;53.254;10.430;2022-07-30T14:54:26;3.55;;;2.25;;
37895;SDS011;23733;53.254;10.430;2022-07-30T14:56:52;6.53;;;2.50;;
37895;SDS011;23733;53.254;10.430;2022-07-30T14:59:18;7.25;;;2.45;;
37895;SDS011;23733;53.254;10.430;2022-07-30T15:01:44;4.78;;;2.03;;
37895;SDS011;23733;53.254;10.430;2022-07-30T15:04:12;4.25;;;2.50;;
37895;SDS011;23733;53.254;10.430;2022-07-30T15:06:39;5.75;;;2.35;;
37895;SDS011;23733;53.254;10.430;2022-07-30T15:09:06;6.82;;;2.65;;